sensor_id;sensor_type;location;lat;lon;timestamp;P1;durP1;ratioP1;P2;durP2;ratioP2
24153;SDS011;12312;53.362;-1.518;2023-05-14T00:02:44;75.40;;;41.58;;
24153;SDS011;12312;53.362;-1.518;2023-05-14T00:05:28;74.80;;;40.47;;
24153;SDS011;12312;53.362;-1.518;2023-05-14T00:08:12;78.45;;;41.83;;
24153;SDS011;12312;53.362;-1.518;2023-05-14T00:10:56;74.18;;;39.42;;
24153;SDS011;12312;53.362;-1.518;2023-05-14T00:13:41;74.00;;;39.17;;
24153;SDS011;12312;53.362;-1.518;2023-05-14T00:16:26;76.30;;;40.50;;
24153;SDS011;12312;53.362;-1.518;2023-05-14T00:19:10;77.22;;;40.95;;
24153;SDS011;12312;53.362;-1.518;2023-05-14T00:21:54;76.38;;;39.90;;
24153;SDS011;12312;53.362;-1.518;2023-05-14T00:24:38;71.28;;;38.88;;
24153;SDS011;12312;53.362;-1.518;2023-05-14T00:27:21;72.18;;;39.78;;
24153;SDS011;12312;53.362;-1.518;2023-05-14T00:30:06;79.43;;;42.80;;
24153;SDS011;12312;53.362;-1.518;2023-05-14T00:32:50;72.80;;;39.63;;
24153;SDS011;12312;53.362;-1.518;2023-05-14T00:35:34;74.32;;;39.25;;
24153;SDS011;12312;53.362;-1.518;2023-05-14T00:38:18;70.97;;;39.47;;
24153;SDS011;12312;53.362;-1.518;2023-05-14T00:41:03;78.45;;;40.40;;
24153;SDS011;12312;53.362;-1.518;2023-05-14T00:43:46;73.20;;;39.28;;
24153;SDS011;12312;53.362;-1.518;2023-05-14T00:46:31;70.57;;;39.08;;
24153;SDS011;12312;53.362;-1.518;2023-05-14T00:49:15;68.97;;;39.53;;
24153;SDS011;12312;53.362;-1.518;2023-05-14T00:52:00;69.20;;;37.67;;
24153;SDS011;12312;53.362;-1.518;2023-05-14T00:54:45;77.55;;;40.40;;
24153;SDS011;12312;53.362;-1.518;2023-05-14T00:57:30;66.97;;;37.10;;
24153;SDS011;12312;53.362;-1.518;2023-05-14T01:00:15;71.32;;;38.00;;
24153;SDS011;12312;53.362;-1.518;2023-05-14T01:03:00;69.65;;;38.33;;
24153;SDS011;12312;53.362;-1.518;2023-05-14T01:05:49;74.65;;;39.40;;
24153;SDS011;12312;53.362;-1.518;2023-05-14T01:09:00;70.22;;;39.63;;
24153;SDS011;12312;53.362;-1.518;2023-05-14T01:17:51;78.97;;;42.10;;
24153;SDS011;12312;53.362;-1.518;2023-05-14T01:20:38;73.95;;;41.30;;
24153;SDS011;12312;53.362;-1.518;2023-05-14T01:23:22;71.57;;;40.22;;
24153;SDS011;12312;53.362;-1.518;2023-05-14T01:26:07;67.20;;;35.67;;
24153;SDS011;12312;53.362;-1.518;2023-05-14T01:28:53;63.58;;;36.92;;
24153;SDS011;12312;53.362;-1.518;2023-05-14T01:31:43;61.80;;;37.53;;
24153;SDS011;12312;53.362;-1.518;2023-05-14T01:34:29;61.42;;;35.03;;
24153;SDS011;12312;53.362;-1.518;2023-05-14T01:37:14;65.38;;;35.90;;
24153;SDS011;12312;53.362;-1.518;2023-05-14T01:40:00;65.80;;;35.00;;
24153;SDS011;12312;53.362;-1.518;2023-05-14T01:42:46;57.50;;;33.40;;
24153;SDS011;12312;53.362;-1.518;2023-05-14T01:45:33;61.35;;;33.85;;
24153;SDS011;12312;53.362;-1.518;2023-05-14T01:48:18;62.00;;;33.67;;
24153;SDS011;12312;53.362;-1.518;2023-05-14T01:51:02;59.35;;;34.13;;
24153;SDS011;12312;53.362;-1.518;2023-05-14T01:53:47;63.15;;;34.08;;
24153;SDS011;12312;53.362;-1.518;2023-05-14T01:56:37;59.38;;;33.53;;
24153;SDS011;12312;53.362;-1.518;2023-05-14T01:59:21;63.50;;;32.78;;
24153;SDS011;12312;53.362;-1.518;2023-05-14T02:02:04;64.97;;;35.35;;
24153;SDS011;12312;53.362;-1.518;2023-05-14T02:04:49;62.58;;;33.67;;
24153;SDS011;12312;53.362;-1.518;2023-05-14T02:07:32;61.95;;;34.90;;
24153;SDS011;12312;53.362;-1.518;2023-05-14T02:10:17;68.95;;;36.80;;
24153;SDS011;12312;53.362;-1.518;2023-05-14T02:13:01;74.25;;;37.90;;
24153;SDS011;12312;53.362;-1.518;2023-05-14T02:15:48;68.68;;;37.50;;
24153;SDS011;12312;53.362;-1.518;2023-05-14T02:18:32;72.43;;;37.50;;
24153;SDS011;12312;53.362;-1.518;2023-05-14T02:21:17;74.28;;;39.50;;
24153;SDS011;12312;53.362;-1.518;2023-05-14T02:24:00;67.57;;;36.08;;
24153;SDS011;12312;53.362;-1.518;2023-05-14T02:26:45;63.35;;;34.33;;
24153;SDS011;12312;53.362;-1.518;2023-05-14T02:29:30;62.90;;;35.42;;
24153;SDS011;12312;53.362;-1.518;2023-05-14T02:32:14;66.00;;;36.40;;
24153;SDS011;12312;53.362;-1.518;2023-05-14T02:34:58;68.32;;;36.72;;
24153;SDS011;12312;53.362;-1.518;2023-05-14T02:37:42;67.55;;;36.53;;
24153;SDS011;12312;53.362;-1.518;2023-05-14T02:40:26;66.70;;;35.88;;
24153;SDS011;12312;53.362;-1.518;2023-05-14T02:43:10;68.47;;;36.35;;
24153;SDS011;12312;53.362;-1.518;2023-05-14T02:45:54;64.65;;;34.10;;
24153;SDS011;12312;53.362;-1.518;2023-05-14T02:48:38;62.97;;;35.65;;
24153;SDS011;12312;53.362;-1.518;2023-05-14T02:51:22;103.18;;;38.90;;
24153;SDS011;12312;53.362;-1.518;2023-05-14T02:54:07;73.10;;;38.70;;
24153;SDS011;12312;53.362;-1.518;2023-05-14T02:56:51;70.30;;;37.05;;
24153;SDS011;12312;53.362;-1.518;2023-05-14T02:59:35;72.63;;;37.63;;
24153;SDS011;12312;53.362;-1.518;2023-05-14T03:02:19;67.10;;;34.97;;
24153;SDS011;12312;53.362;-1.518;2023-05-14T03:05:03;62.00;;;33.67;;
24153;SDS011;12312;53.362;-1.518;2023-05-14T03:07:49;64.60;;;34.58;;
24153;SDS011;12312;53.362;-1.518;2023-05-14T03:10:34;63.75;;;33.17;;
24153;SDS011;12312;53.362;-1.518;2023-05-14T03:13:18;63.03;;;32.05;;
24153;SDS011;12312;53.362;-1.518;2023-05-14T03:16:03;61.83;;;32.72;;
24153;SDS011;12312;53.362;-1.518;2023-05-14T03:18:47;57.95;;;31.38;;
24153;SDS011;12312;53.362;-1.518;2023-05-14T03:21:32;63.17;;;31.25;;
24153;SDS011;12312;53.362;-1.518;2023-05-14T03:24:16;63.88;;;32.90;;
24153;SDS011;12312;53.362;-1.518;2023-05-14T03:27:00;64.63;;;33.10;;
24153;SDS011;12312;53.362;-1.518;2023-05-14T03:29:43;62.28;;;32.10;;
24153;SDS011;12312;53.362;-1.518;2023-05-14T03:32:28;62.85;;;33.33;;
24153;SDS011;12312;53.362;-1.518;2023-05-14T03:35:13;59.35;;;31.23;;
24153;SDS011;12312;53.362;-1.518;2023-05-14T03:37:57;69.05;;;35.15;;
24153;SDS011;12312;53.362;-1.518;2023-05-14T03:40:45;68.50;;;34.10;;
24153;SDS011;12312;53.362;-1.518;2023-05-14T03:43:30;62.55;;;32.83;;
24153;SDS011;12312;53.362;-1.518;2023-05-14T03:46:14;67.32;;;35.30;;
24153;SDS011;12312;53.362;-1.518;2023-05-14T03:48:58;67.72;;;34.40;;
24153;SDS011;12312;53.362;-1.518;2023-05-14T03:51:42;62.75;;;33.63;;
24153;SDS011;12312;53.362;-1.518;2023-05-14T03:54:26;59.95;;;32.35;;
24153;SDS011;12312;53.362;-1.518;2023-05-14T03:57:10;60.67;;;32.67;;
24153;SDS011;12312;53.362;-1.518;2023-05-14T03:59:54;59.15;;;31.67;;
24153;SDS011;12312;53.362;-1.518;2023-05-14T04:02:38;58.85;;;30.27;;
24153;SDS011;12312;53.362;-1.518;2023-05-14T04:05:23;58.30;;;32.00;;
24153;SDS011;12312;53.362;-1.518;2023-05-14T04:08:07;56.47;;;29.67;;
24153;SDS011;12312;53.362;-1.518;2023-05-14T04:10:51;64.40;;;32.92;;
24153;SDS011;12312;53.362;-1.518;2023-05-14T04:13:35;56.17;;;30.60;;
24153;SDS011;12312;53.362;-1.518;2023-05-14T04:16:19;60.65;;;30.77;;
24153;SDS011;12312;53.362;-1.518;2023-05-14T04:19:03;59.28;;;31.98;;
24153;SDS011;12312;53.362;-1.518;2023-05-14T04:21:48;61.80;;;32.80;;
24153;SDS011;12312;53.362;-1.518;2023-05-14T04:24:32;61.60;;;31.63;;
24153;SDS011;12312;53.362;-1.518;2023-05-14T04:27:19;63.42;;;33.53;;
24153;SDS011;12312;53.362;-1.518;2023-05-14T04:30:04;60.05;;;31.98;;
24153;SDS011;12312;53.362;-1.518;2023-05-14T04:32:49;68.97;;;33.53;;
24153;SDS011;12312;53.362;-1.518;2023-05-14T04:35:34;59.95;;;32.13;;
24153;SDS011;12312;53.362;-1.518;2023-05-14T04:38:18;67.65;;;33.90;;
24153;SDS011;12312;53.362;-1.518;2023-05-14T04:41:02;59.08;;;33.05;;
24153;SDS011;12312;53.362;-1.518;2023-05-14T04:43:48;53.83;;;29.15;;
24153;SDS011;12312;53.362;-1.518;2023-05-14T04:46:32;57.95;;;30.73;;
24153;SDS011;12312;53.362;-1.518;2023-05-14T04:49:17;63.83;;;33.22;;
24153;SDS011;12312;53.362;-1.518;2023-05-14T04:52:00;56.50;;;30.63;;
24153;SDS011;12312;53.362;-1.518;2023-05-14T04:54:46;59.15;;;33.67;;
24153;SDS011;12312;53.362;-1.518;2023-05-14T04:57:30;64.35;;;33.63;;
24153;SDS011;12312;53.362;-1.518;2023-05-14T05:00:15;62.70;;;32.58;;
24153;SDS011;12312;53.362;-1.518;2023-05-14T05:03:06;66.18;;;33.97;;
24153;SDS011;12312;53.362;-1.518;2023-05-14T05:05:50;65.32;;;33.28;;
24153;SDS011;12312;53.362;-1.518;2023-05-14T05:08:35;60.72;;;31.90;;
24153;SDS011;12312;53.362;-1.518;2023-05-14T05:11:21;66.13;;;32.58;;
24153;SDS011;12312;53.362;-1.518;2023-05-14T05:14:05;60.63;;;32.75;;
24153;SDS011;12312;53.362;-1.518;2023-05-14T05:16:50;65.30;;;34.03;;
24153;SDS011;12312;53.362;-1.518;2023-05-14T05:19:34;64.80;;;33.80;;
24153;SDS011;12312;53.362;-1.518;2023-05-14T05:22:18;64.65;;;32.67;;
24153;SDS011;12312;53.362;-1.518;2023-05-14T05:25:03;67.57;;;34.42;;
24153;SDS011;12312;53.362;-1.518;2023-05-14T05:27:51;73.68;;;34.05;;
24153;SDS011;12312;53.362;-1.518;2023-05-14T05:30:35;68.00;;;34.47;;
24153;SDS011;12312;53.362;-1.518;2023-05-14T05:33:19;68.97;;;34.05;;
24153;SDS011;12312;53.362;-1.518;2023-05-14T05:36:03;69.22;;;34.67;;
24153;SDS011;12312;53.362;-1.518;2023-05-14T05:38:48;63.88;;;33.72;;
24153;SDS011;12312;53.362;-1.518;2023-05-14T05:41:32;66.30;;;33.97;;
24153;SDS011;12312;53.362;-1.518;2023-05-14T05:44:16;66.38;;;34.80;;
24153;SDS011;12312;53.362;-1.518;2023-05-14T05:47:00;65.22;;;33.95;;
24153;SDS011;12312;53.362;-1.518;2023-05-14T05:49:44;65.05;;;33.92;;
24153;SDS011;12312;53.362;-1.518;2023-05-14T05:52:28;67.70;;;34.75;;
24153;SDS011;12312;53.362;-1.518;2023-05-14T05:55:12;66.00;;;34.70;;
24153;SDS011;12312;53.362;-1.518;2023-05-14T05:57:56;65.88;;;34.83;;
24153;SDS011;12312;53.362;-1.518;2023-05-14T06:00:40;65.28;;;33.25;;
24153;SDS011;12312;53.362;-1.518;2023-05-14T06:03:24;96.32;;;42.55;;
24153;SDS011;12312;53.362;-1.518;2023-05-14T06:06:09;78.55;;;39.75;;
24153;SDS011;12312;53.362;-1.518;2023-05-14T06:08:53;77.95;;;38.58;;
24153;SDS011;12312;53.362;-1.518;2023-05-14T06:11:37;77.90;;;38.65;;
24153;SDS011;12312;53.362;-1.518;2023-05-14T06:14:21;66.70;;;36.38;;
24153;SDS011;12312;53.362;-1.518;2023-05-14T06:17:06;67.03;;;37.45;;
24153;SDS011;12312;53.362;-1.518;2023-05-14T06:19:50;63.35;;;34.13;;
24153;SDS011;12312;53.362;-1.518;2023-05-14T06:22:35;62.20;;;34.42;;
24153;SDS011;12312;53.362;-1.518;2023-05-14T06:25:19;59.25;;;32.92;;
24153;SDS011;12312;53.362;-1.518;2023-05-14T06:28:04;54.55;;;31.55;;
24153;SDS011;12312;53.362;-1.518;2023-05-14T06:30:51;54.78;;;30.75;;
24153;SDS011;12312;53.362;-1.518;2023-05-14T06:33:36;57.53;;;31.08;;
24153;SDS011;12312;53.362;-1.518;2023-05-14T06:36:21;48.88;;;28.80;;
24153;SDS011;12312;53.362;-1.518;2023-05-14T06:39:05;62.55;;;32.13;;
24153;SDS011;12312;53.362;-1.518;2023-05-14T06:41:49;53.00;;;30.33;;
24153;SDS011;12312;53.362;-1.518;2023-05-14T06:44:33;54.00;;;31.15;;
24153;SDS011;12312;53.362;-1.518;2023-05-14T06:47:18;55.45;;;31.52;;
24153;SDS011;12312;53.362;-1.518;2023-05-14T06:50:03;55.08;;;31.05;;
24153;SDS011;12312;53.362;-1.518;2023-05-14T06:52:47;60.83;;;33.50;;
24153;SDS011;12312;53.362;-1.518;2023-05-14T06:55:31;60.83;;;33.30;;
24153;SDS011;12312;53.362;-1.518;2023-05-14T06:58:17;53.95;;;31.30;;
24153;SDS011;12312;53.362;-1.518;2023-05-14T07:01:01;56.90;;;32.67;;
24153;SDS011;12312;53.362;-1.518;2023-05-14T07:03:45;59.08;;;32.67;;
24153;SDS011;12312;53.362;-1.518;2023-05-14T07:06:29;54.38;;;31.05;;
24153;SDS011;12312;53.362;-1.518;2023-05-14T07:09:13;50.58;;;29.55;;
24153;SDS011;12312;53.362;-1.518;2023-05-14T07:11:58;49.55;;;28.60;;
24153;SDS011;12312;53.362;-1.518;2023-05-14T07:14:43;51.00;;;29.70;;
24153;SDS011;12312;53.362;-1.518;2023-05-14T07:17:27;48.03;;;27.42;;
24153;SDS011;12312;53.362;-1.518;2023-05-14T07:20:11;49.38;;;29.40;;
24153;SDS011;12312;53.362;-1.518;2023-05-14T07:22:55;54.85;;;29.58;;
24153;SDS011;12312;53.362;-1.518;2023-05-14T07:25:39;52.17;;;30.15;;
24153;SDS011;12312;53.362;-1.518;2023-05-14T07:28:23;53.30;;;29.48;;
24153;SDS011;12312;53.362;-1.518;2023-05-14T07:31:07;50.65;;;28.73;;
24153;SDS011;12312;53.362;-1.518;2023-05-14T07:33:54;50.05;;;29.13;;
24153;SDS011;12312;53.362;-1.518;2023-05-14T07:36:38;52.78;;;31.55;;
24153;SDS011;12312;53.362;-1.518;2023-05-14T07:39:24;57.65;;;32.58;;
24153;SDS011;12312;53.362;-1.518;2023-05-14T07:44:52;54.85;;;30.83;;
24153;SDS011;12312;53.362;-1.518;2023-05-14T07:47:37;56.90;;;32.25;;
24153;SDS011;12312;53.362;-1.518;2023-05-14T07:50:21;56.20;;;33.42;;
24153;SDS011;12312;53.362;-1.518;2023-05-14T07:53:06;57.13;;;32.42;;
24153;SDS011;12312;53.362;-1.518;2023-05-14T07:55:50;52.47;;;31.52;;
24153;SDS011;12312;53.362;-1.518;2023-05-14T07:58:34;59.42;;;33.75;;
24153;SDS011;12312;53.362;-1.518;2023-05-14T08:01:18;57.05;;;33.50;;
24153;SDS011;12312;53.362;-1.518;2023-05-14T08:04:03;53.45;;;32.60;;
24153;SDS011;12312;53.362;-1.518;2023-05-14T08:06:48;55.53;;;33.10;;
24153;SDS011;12312;53.362;-1.518;2023-05-14T08:09:32;55.08;;;33.88;;
24153;SDS011;12312;53.362;-1.518;2023-05-14T08:12:17;57.17;;;32.63;;
24153;SDS011;12312;53.362;-1.518;2023-05-14T08:15:01;54.70;;;32.83;;
24153;SDS011;12312;53.362;-1.518;2023-05-14T08:17:45;53.35;;;31.73;;
24153;SDS011;12312;53.362;-1.518;2023-05-14T08:20:29;53.40;;;32.08;;
24153;SDS011;12312;53.362;-1.518;2023-05-14T08:23:13;54.28;;;32.33;;
24153;SDS011;12312;53.362;-1.518;2023-05-14T08:25:58;55.53;;;33.33;;
24153;SDS011;12312;53.362;-1.518;2023-05-14T08:28:42;58.50;;;33.70;;
24153;SDS011;12312;53.362;-1.518;2023-05-14T08:31:26;53.92;;;33.90;;
24153;SDS011;12312;53.362;-1.518;2023-05-14T08:34:10;52.47;;;32.60;;
24153;SDS011;12312;53.362;-1.518;2023-05-14T08:36:54;55.08;;;33.25;;
24153;SDS011;12312;53.362;-1.518;2023-05-14T08:39:40;51.60;;;30.75;;
24153;SDS011;12312;53.362;-1.518;2023-05-14T08:42:24;59.30;;;33.03;;
24153;SDS011;12312;53.362;-1.518;2023-05-14T08:48:04;55.35;;;31.98;;
24153;SDS011;12312;53.362;-1.518;2023-05-14T08:50:55;54.25;;;31.33;;
24153;SDS011;12312;53.362;-1.518;2023-05-14T08:53:39;51.88;;;30.15;;
24153;SDS011;12312;53.362;-1.518;2023-05-14T08:56:23;53.65;;;32.35;;
24153;SDS011;12312;53.362;-1.518;2023-05-14T08:59:08;55.83;;;33.55;;
24153;SDS011;12312;53.362;-1.518;2023-05-14T09:01:53;52.28;;;30.90;;
24153;SDS011;12312;53.362;-1.518;2023-05-14T09:04:41;55.13;;;31.65;;
24153;SDS011;12312;53.362;-1.518;2023-05-14T09:07:25;48.85;;;30.38;;
24153;SDS011;12312;53.362;-1.518;2023-05-14T09:10:10;57.95;;;31.27;;
24153;SDS011;12312;53.362;-1.518;2023-05-14T09:12:54;49.20;;;29.73;;
24153;SDS011;12312;53.362;-1.518;2023-05-14T09:15:38;48.95;;;30.13;;
24153;SDS011;12312;53.362;-1.518;2023-05-14T09:18:23;50.35;;;30.27;;
24153;SDS011;12312;53.362;-1.518;2023-05-14T09:21:08;51.08;;;30.88;;
24153;SDS011;12312;53.362;-1.518;2023-05-14T09:23:53;47.53;;;29.63;;
24153;SDS011;12312;53.362;-1.518;2023-05-14T09:26:39;48.83;;;29.05;;
24153;SDS011;12312;53.362;-1.518;2023-05-14T09:29:24;52.38;;;30.58;;
24153;SDS011;12312;53.362;-1.518;2023-05-14T09:32:09;43.53;;;27.40;;
24153;SDS011;12312;53.362;-1.518;2023-05-14T09:34:54;43.20;;;27.73;;
24153;SDS011;12312;53.362;-1.518;2023-05-14T09:37:43;42.88;;;26.55;;
24153;SDS011;12312;53.362;-1.518;2023-05-14T09:40:31;37.22;;;24.00;;
24153;SDS011;12312;53.362;-1.518;2023-05-14T09:43:16;40.35;;;25.20;;
24153;SDS011;12312;53.362;-1.518;2023-05-14T09:46:02;36.78;;;24.17;;
24153;SDS011;12312;53.362;-1.518;2023-05-14T09:48:46;36.03;;;24.13;;
24153;SDS011;12312;53.362;-1.518;2023-05-14T09:51:30;37.20;;;23.98;;
24153;SDS011;12312;53.362;-1.518;2023-05-14T09:54:14;35.85;;;22.98;;
24153;SDS011;12312;53.362;-1.518;2023-05-14T09:56:59;33.30;;;20.15;;
24153;SDS011;12312;53.362;-1.518;2023-05-14T09:59:43;31.90;;;20.88;;
24153;SDS011;12312;53.362;-1.518;2023-05-14T10:02:34;30.10;;;18.92;;
24153;SDS011;12312;53.362;-1.518;2023-05-14T10:05:20;24.38;;;15.98;;
24153;SDS011;12312;53.362;-1.518;2023-05-14T10:08:29;28.73;;;18.63;;
24153;SDS011;12312;53.362;-1.518;2023-05-14T10:11:14;28.40;;;17.52;;
24153;SDS011;12312;53.362;-1.518;2023-05-14T10:14:10;26.13;;;16.70;;
24153;SDS011;12312;53.362;-1.518;2023-05-14T10:17:03;22.80;;;15.33;;
24153;SDS011;12312;53.362;-1.518;2023-05-14T10:22:34;21.73;;;14.25;;
24153;SDS011;12312;53.362;-1.518;2023-05-14T10:25:18;22.05;;;14.23;;
24153;SDS011;12312;53.362;-1.518;2023-05-14T10:28:03;15.25;;;10.25;;
24153;SDS011;12312;53.362;-1.518;2023-05-14T10:30:48;11.98;;;7.93;;
24153;SDS011;12312;53.362;-1.518;2023-05-14T10:33:45;9.35;;;7.60;;
24153;SDS011;12312;53.362;-1.518;2023-05-14T10:36:33;10.00;;;6.80;;
24153;SDS011;12312;53.362;-1.518;2023-05-14T10:39:17;9.88;;;6.07;;
24153;SDS011;12312;53.362;-1.518;2023-05-14T10:42:01;10.30;;;5.93;;
24153;SDS011;12312;53.362;-1.518;2023-05-14T10:44:47;8.98;;;6.57;;
24153;SDS011;12312;53.362;-1.518;2023-05-14T10:47:33;12.40;;;7.68;;
24153;SDS011;12312;53.362;-1.518;2023-05-14T10:53:03;15.20;;;10.38;;
24153;SDS011;12312;53.362;-1.518;2023-05-14T10:55:47;17.67;;;11.02;;
24153;SDS011;12312;53.362;-1.518;2023-05-14T10:58:34;15.88;;;10.55;;
24153;SDS011;12312;53.362;-1.518;2023-05-14T11:01:19;11.95;;;8.75;;
24153;SDS011;12312;53.362;-1.518;2023-05-14T11:04:07;15.13;;;9.20;;
24153;SDS011;12312;53.362;-1.518;2023-05-14T11:06:51;13.40;;;8.15;;
24153;SDS011;12312;53.362;-1.518;2023-05-14T11:09:36;9.20;;;7.13;;
24153;SDS011;12312;53.362;-1.518;2023-05-14T11:12:20;8.93;;;6.28;;
24153;SDS011;12312;53.362;-1.518;2023-05-14T11:15:06;8.00;;;5.80;;
24153;SDS011;12312;53.362;-1.518;2023-05-14T11:17:55;8.48;;;5.35;;
24153;SDS011;12312;53.362;-1.518;2023-05-14T11:20:39;10.93;;;6.63;;
24153;SDS011;12312;53.362;-1.518;2023-05-14T11:23:23;12.05;;;8.43;;
24153;SDS011;12312;53.362;-1.518;2023-05-14T11:26:10;10.02;;;7.50;;
24153;SDS011;12312;53.362;-1.518;2023-05-14T11:28:55;13.30;;;8.73;;
24153;SDS011;12312;53.362;-1.518;2023-05-14T11:31:39;11.13;;;7.95;;
24153;SDS011;12312;53.362;-1.518;2023-05-14T11:34:23;5.45;;;4.03;;
24153;SDS011;12312;53.362;-1.518;2023-05-14T11:37:08;4.05;;;3.65;;
24153;SDS011;12312;53.362;-1.518;2023-05-14T11:39:53;3.50;;;2.05;;
24153;SDS011;12312;53.362;-1.518;2023-05-14T11:42:38;1.63;;;1.00;;
24153;SDS011;12312;53.362;-1.518;2023-05-14T11:45:25;1.75;;;1.20;;
24153;SDS011;12312;53.362;-1.518;2023-05-14T11:48:10;4.53;;;1.92;;
24153;SDS011;12312;53.362;-1.518;2023-05-14T11:50:57;2.78;;;2.10;;
24153;SDS011;12312;53.362;-1.518;2023-05-14T11:53:41;2.83;;;1.95;;
24153;SDS011;12312;53.362;-1.518;2023-05-14T11:56:25;2.75;;;1.50;;
24153;SDS011;12312;53.362;-1.518;2023-05-14T11:59:09;2.95;;;1.60;;
24153;SDS011;12312;53.362;-1.518;2023-05-14T12:01:54;2.08;;;1.58;;
24153;SDS011;12312;53.362;-1.518;2023-05-14T12:04:38;2.28;;;1.65;;
24153;SDS011;12312;53.362;-1.518;2023-05-14T12:07:23;2.65;;;1.58;;
24153;SDS011;12312;53.362;-1.518;2023-05-14T12:10:12;2.40;;;1.48;;
24153;SDS011;12312;53.362;-1.518;2023-05-14T12:12:56;2.35;;;1.40;;
24153;SDS011;12312;53.362;-1.518;2023-05-14T12:15:43;1.92;;;1.52;;
24153;SDS011;12312;53.362;-1.518;2023-05-14T12:18:29;3.70;;;2.70;;
24153;SDS011;12312;53.362;-1.518;2023-05-14T12:21:14;4.10;;;2.72;;
24153;SDS011;12312;53.362;-1.518;2023-05-14T12:23:58;3.67;;;2.90;;
24153;SDS011;12312;53.362;-1.518;2023-05-14T12:26:49;5.88;;;3.83;;
24153;SDS011;12312;53.362;-1.518;2023-05-14T12:29:37;6.45;;;4.80;;
24153;SDS011;12312;53.362;-1.518;2023-05-14T12:32:23;7.35;;;4.57;;
24153;SDS011;12312;53.362;-1.518;2023-05-14T12:35:08;5.97;;;4.07;;
24153;SDS011;12312;53.362;-1.518;2023-05-14T12:37:53;4.88;;;3.90;;
24153;SDS011;12312;53.362;-1.518;2023-05-14T12:40:37;6.32;;;3.80;;
24153;SDS011;12312;53.362;-1.518;2023-05-14T12:43:21;7.93;;;3.55;;
24153;SDS011;12312;53.362;-1.518;2023-05-14T12:46:05;5.00;;;3.00;;
24153;SDS011;12312;53.362;-1.518;2023-05-14T12:48:49;5.47;;;2.67;;
24153;SDS011;12312;53.362;-1.518;2023-05-14T12:51:33;5.10;;;2.80;;
24153;SDS011;12312;53.362;-1.518;2023-05-14T12:54:17;2.97;;;2.60;;
24153;SDS011;12312;53.362;-1.518;2023-05-14T12:57:02;4.47;;;2.83;;
24153;SDS011;12312;53.362;-1.518;2023-05-14T12:59:46;3.15;;;2.40;;
24153;SDS011;12312;53.362;-1.518;2023-05-14T13:02:30;4.65;;;2.85;;
24153;SDS011;12312;53.362;-1.518;2023-05-14T13:05:14;3.83;;;2.40;;
24153;SDS011;12312;53.362;-1.518;2023-05-14T13:07:59;3.50;;;2.63;;
24153;SDS011;12312;53.362;-1.518;2023-05-14T13:10:44;6.10;;;2.03;;
24153;SDS011;12312;53.362;-1.518;2023-05-14T13:13:28;2.67;;;2.08;;
24153;SDS011;12312;53.362;-1.518;2023-05-14T13:16:12;2.13;;;1.75;;
24153;SDS011;12312;53.362;-1.518;2023-05-14T13:18:59;3.33;;;1.60;;
24153;SDS011;12312;53.362;-1.518;2023-05-14T13:21:43;2.67;;;1.45;;
24153;SDS011;12312;53.362;-1.518;2023-05-14T13:24:27;2.78;;;1.88;;
24153;SDS011;12312;53.362;-1.518;2023-05-14T13:27:10;3.35;;;1.90;;
24153;SDS011;12312;53.362;-1.518;2023-05-14T13:29:54;2.20;;;1.90;;
24153;SDS011;12312;53.362;-1.518;2023-05-14T13:32:39;3.47;;;2.47;;
24153;SDS011;12312;53.362;-1.518;2023-05-14T13:35:23;3.10;;;2.33;;
24153;SDS011;12312;53.362;-1.518;2023-05-14T13:38:08;4.43;;;2.30;;
24153;SDS011;12312;53.362;-1.518;2023-05-14T13:40:52;3.75;;;1.77;;
24153;SDS011;12312;53.362;-1.518;2023-05-14T13:43:36;3.05;;;2.17;;
24153;SDS011;12312;53.362;-1.518;2023-05-14T13:46:20;2.75;;;2.20;;
24153;SDS011;12312;53.362;-1.518;2023-05-14T13:49:04;4.57;;;2.10;;
24153;SDS011;12312;53.362;-1.518;2023-05-14T13:51:49;2.40;;;2.17;;
24153;SDS011;12312;53.362;-1.518;2023-05-14T13:54:32;3.05;;;2.00;;
24153;SDS011;12312;53.362;-1.518;2023-05-14T13:57:16;2.97;;;1.85;;
24153;SDS011;12312;53.362;-1.518;2023-05-14T14:00:02;3.25;;;2.00;;
24153;SDS011;12312;53.362;-1.518;2023-05-14T14:02:47;2.40;;;2.05;;
24153;SDS011;12312;53.362;-1.518;2023-05-14T14:05:33;4.63;;;2.40;;
24153;SDS011;12312;53.362;-1.518;2023-05-14T14:08:19;3.40;;;2.40;;
24153;SDS011;12312;53.362;-1.518;2023-05-14T14:11:03;5.60;;;2.63;;
24153;SDS011;12312;53.362;-1.518;2023-05-14T14:13:47;3.30;;;2.80;;
24153;SDS011;12312;53.362;-1.518;2023-05-14T14:16:32;5.75;;;3.13;;
24153;SDS011;12312;53.362;-1.518;2023-05-14T14:19:15;5.03;;;2.53;;
24153;SDS011;12312;53.362;-1.518;2023-05-14T14:22:00;4.50;;;2.33;;
24153;SDS011;12312;53.362;-1.518;2023-05-14T14:24:45;4.78;;;2.60;;
24153;SDS011;12312;53.362;-1.518;2023-05-14T14:27:29;3.50;;;2.33;;
24153;SDS011;12312;53.362;-1.518;2023-05-14T14:30:18;3.42;;;2.58;;
24153;SDS011;12312;53.362;-1.518;2023-05-14T14:33:02;2.72;;;2.13;;
24153;SDS011;12312;53.362;-1.518;2023-05-14T14:35:46;2.85;;;2.30;;
24153;SDS011;12312;53.362;-1.518;2023-05-14T14:38:30;4.57;;;2.45;;
24153;SDS011;12312;53.362;-1.518;2023-05-14T14:41:14;5.78;;;3.28;;
24153;SDS011;12312;53.362;-1.518;2023-05-14T14:43:59;4.70;;;3.17;;
24153;SDS011;12312;53.362;-1.518;2023-05-14T14:49:30;7.53;;;4.05;;
24153;SDS011;12312;53.362;-1.518;2023-05-14T14:52:14;4.53;;;3.33;;
24153;SDS011;12312;53.362;-1.518;2023-05-14T14:54:58;5.78;;;3.80;;
24153;SDS011;12312;53.362;-1.518;2023-05-14T14:57:42;4.75;;;3.38;;
24153;SDS011;12312;53.362;-1.518;2023-05-14T15:00:26;4.70;;;3.08;;
24153;SDS011;12312;53.362;-1.518;2023-05-14T15:03:10;5.18;;;2.70;;
24153;SDS011;12312;53.362;-1.518;2023-05-14T15:05:58;4.78;;;3.28;;
24153;SDS011;12312;53.362;-1.518;2023-05-14T15:08:42;6.72;;;4.18;;
24153;SDS011;12312;53.362;-1.518;2023-05-14T15:11:26;8.48;;;5.13;;
24153;SDS011;12312;53.362;-1.518;2023-05-14T15:14:11;6.72;;;4.65;;
24153;SDS011;12312;53.362;-1.518;2023-05-14T15:17:00;6.38;;;4.68;;
24153;SDS011;12312;53.362;-1.518;2023-05-14T15:19:48;6.80;;;4.38;;
24153;SDS011;12312;53.362;-1.518;2023-05-14T15:22:34;7.68;;;4.10;;
24153;SDS011;12312;53.362;-1.518;2023-05-14T15:25:20;8.10;;;4.95;;
24153;SDS011;12312;53.362;-1.518;2023-05-14T15:28:05;8.13;;;4.93;;
24153;SDS011;12312;53.362;-1.518;2023-05-14T15:30:50;6.63;;;4.60;;
24153;SDS011;12312;53.362;-1.518;2023-05-14T15:33:34;6.28;;;4.35;;
24153;SDS011;12312;53.362;-1.518;2023-05-14T15:36:18;5.60;;;3.92;;
24153;SDS011;12312;53.362;-1.518;2023-05-14T15:39:02;5.72;;;4.28;;
24153;SDS011;12312;53.362;-1.518;2023-05-14T15:41:46;4.70;;;3.75;;
24153;SDS011;12312;53.362;-1.518;2023-05-14T15:44:30;6.45;;;3.67;;
24153;SDS011;12312;53.362;-1.518;2023-05-14T15:47:15;4.38;;;2.92;;
24153;SDS011;12312;53.362;-1.518;2023-05-14T15:50:08;7.07;;;2.95;;
24153;SDS011;12312;53.362;-1.518;2023-05-14T15:52:54;5.40;;;3.00;;
24153;SDS011;12312;53.362;-1.518;2023-05-14T15:55:38;5.15;;;3.45;;
24153;SDS011;12312;53.362;-1.518;2023-05-14T15:58:23;5.63;;;3.53;;
24153;SDS011;12312;53.362;-1.518;2023-05-14T16:01:07;5.38;;;3.70;;
24153;SDS011;12312;53.362;-1.518;2023-05-14T16:03:51;6.38;;;4.20;;
24153;SDS011;12312;53.362;-1.518;2023-05-14T16:06:39;5.32;;;2.78;;
24153;SDS011;12312;53.362;-1.518;2023-05-14T16:09:25;3.72;;;2.83;;
24153;SDS011;12312;53.362;-1.518;2023-05-14T16:12:09;4.10;;;2.28;;
24153;SDS011;12312;53.362;-1.518;2023-05-14T16:14:53;2.90;;;1.70;;
24153;SDS011;12312;53.362;-1.518;2023-05-14T16:17:37;4.35;;;1.83;;
24153;SDS011;12312;53.362;-1.518;2023-05-14T16:20:21;2.97;;;1.92;;
24153;SDS011;12312;53.362;-1.518;2023-05-14T16:23:05;2.63;;;2.00;;